sensor_id;sensor_type;location;lat;lon;timestamp;temperature;humidity
326;DHT22;150;52.352;14.058;2023-09-19T00:01:50;21.10;45.20
326;DHT22;150;52.352;14.058;2023-09-19T00:04:26;20.90;44.60
326;DHT22;150;52.352;14.058;2023-09-19T00:07:16;21.60;45.80
326;DHT22;150;52.352;14.058;2023-09-19T00:10:10;20.80;45.00
326;DHT22;150;52.352;14.058;2023-09-19T00:13:00;20.90;45.00
326;DHT22;150;52.352;14.058;2023-09-19T00:19:02;20.90;44.80
326;DHT22;150;52.352;14.058;2023-09-19T00:21:54;20.90;44.80
326;DHT22;150;52.352;14.058;2023-09-19T00:24:32;20.80;44.40
326;DHT22;150;52.352;14.058;2023-09-19T00:27:26;20.80;44.70
326;DHT22;150;52.352;14.058;2023-09-19T00:30:35;21.50;45.20
326;DHT22;150;52.352;14.058;2023-09-19T00:33:39;20.50;45.60
326;DHT22;150;52.352;14.058;2023-09-19T00:36:38;20.60;45.90
326;DHT22;150;52.352;14.058;2023-09-19T00:42:56;20.50;45.80
326;DHT22;150;52.352;14.058;2023-09-19T00:45:48;20.50;45.80
326;DHT22;150;52.352;14.058;2023-09-19T00:51:37;20.20;46.10
326;DHT22;150;52.352;14.058;2023-09-19T00:54:31;20.20;47.10
326;DHT22;150;52.352;14.058;2023-09-19T00:57:46;20.40;47.20
326;DHT22;150;52.352;14.058;2023-09-19T01:00:44;20.30;46.20
326;DHT22;150;52.352;14.058;2023-09-19T01:06:32;20.30;45.60
326;DHT22;150;52.352;14.058;2023-09-19T01:09:20;20.30;46.10
326;DHT22;150;52.352;14.058;2023-09-19T01:12:11;20.20;46.50
326;DHT22;150;52.352;14.058;2023-09-19T01:15:06;20.30;45.40
326;DHT22;150;52.352;14.058;2023-09-19T01:17:55;20.20;44.80
326;DHT22;150;52.352;14.058;2023-09-19T01:24:06;20.20;45.50
326;DHT22;150;52.352;14.058;2023-09-19T01:30:28;20.40;44.20
326;DHT22;150;52.352;14.058;2023-09-19T01:33:38;20.40;43.50
326;DHT22;150;52.352;14.058;2023-09-19T01:36:28;20.20;43.60
326;DHT22;150;52.352;14.058;2023-09-19T01:39:41;20.20;44.10
326;DHT22;150;52.352;14.058;2023-09-19T01:42:37;20.10;43.90
326;DHT22;150;52.352;14.058;2023-09-19T01:45:37;20.00;44.40
326;DHT22;150;52.352;14.058;2023-09-19T01:48:25;19.90;44.50
326;DHT22;150;52.352;14.058;2023-09-19T01:51:06;19.80;45.50
326;DHT22;150;52.352;14.058;2023-09-19T01:54:08;20.00;44.90
326;DHT22;150;52.352;14.058;2023-09-19T01:56:48;20.00;44.30
326;DHT22;150;52.352;14.058;2023-09-19T01:59:24;20.00;44.90
326;DHT22;150;52.352;14.058;2023-09-19T02:01:54;19.90;45.30
326;DHT22;150;52.352;14.058;2023-09-19T02:04:24;20.20;45.10
326;DHT22;150;52.352;14.058;2023-09-19T02:06:53;19.90;44.80
326;DHT22;150;52.352;14.058;2023-09-19T02:09:23;19.80;44.80
326;DHT22;150;52.352;14.058;2023-09-19T02:11:53;19.90;44.90
326;DHT22;150;52.352;14.058;2023-09-19T02:14:21;19.80;44.90
326;DHT22;150;52.352;14.058;2023-09-19T02:16:49;19.80;45.10
326;DHT22;150;52.352;14.058;2023-09-19T02:19:19;19.80;44.60
326;DHT22;150;52.352;14.058;2023-09-19T02:21:51;19.80;45.40
326;DHT22;150;52.352;14.058;2023-09-19T02:24:21;19.70;45.40
326;DHT22;150;52.352;14.058;2023-09-19T02:26:54;19.70;44.90
326;DHT22;150;52.352;14.058;2023-09-19T02:29:30;19.70;45.40
326;DHT22;150;52.352;14.058;2023-09-19T02:32:06;19.70;45.20
326;DHT22;150;52.352;14.058;2023-09-19T02:35:05;19.70;44.90
326;DHT22;150;52.352;14.058;2023-09-19T02:37:32;20.40;46.30
326;DHT22;150;52.352;14.058;2023-09-19T02:43:08;19.60;45.80
326;DHT22;150;52.352;14.058;2023-09-19T02:45:37;19.60;45.40
326;DHT22;150;52.352;14.058;2023-09-19T02:48:07;19.60;45.60
326;DHT22;150;52.352;14.058;2023-09-19T02:50:51;19.70;45.20
326;DHT22;150;52.352;14.058;2023-09-19T02:53:21;20.40;46.10
326;DHT22;150;52.352;14.058;2023-09-19T02:55:50;19.60;45.20
326;DHT22;150;52.352;14.058;2023-09-19T02:58:18;19.60;44.90
326;DHT22;150;52.352;14.058;2023-09-19T03:00:45;19.50;45.00
326;DHT22;150;52.352;14.058;2023-09-19T03:03:13;19.50;45.60
326;DHT22;150;52.352;14.058;2023-09-19T03:05:43;19.50;45.80
326;DHT22;150;52.352;14.058;2023-09-19T03:08:12;20.10;46.10
326;DHT22;150;52.352;14.058;2023-09-19T03:10:45;19.50;45.50
326;DHT22;150;52.352;14.058;2023-09-19T03:13:12;19.60;45.90
326;DHT22;150;52.352;14.058;2023-09-19T03:15:41;19.60;45.30
326;DHT22;150;52.352;14.058;2023-09-19T03:18:11;19.60;45.50
326;DHT22;150;52.352;14.058;2023-09-19T03:21:10;19.60;45.20
326;DHT22;150;52.352;14.058;2023-09-19T03:23:39;19.60;45.10
326;DHT22;150;52.352;14.058;2023-09-19T03:26:06;19.50;45.60
326;DHT22;150;52.352;14.058;2023-09-19T03:28:38;19.50;46.00
326;DHT22;150;52.352;14.058;2023-09-19T03:31:10;19.90;46.20
326;DHT22;150;52.352;14.058;2023-09-19T03:33:39;19.40;46.20
326;DHT22;150;52.352;14.058;2023-09-19T03:36:11;19.50;45.50
326;DHT22;150;52.352;14.058;2023-09-19T03:38:40;19.40;46.00
326;DHT22;150;52.352;14.058;2023-09-19T03:41:12;19.90;46.50
326;DHT22;150;52.352;14.058;2023-09-19T03:43:39;19.30;46.10
326;DHT22;150;52.352;14.058;2023-09-19T03:46:09;19.40;46.30
326;DHT22;150;52.352;14.058;2023-09-19T03:48:38;19.60;46.20
326;DHT22;150;52.352;14.058;2023-09-19T03:51:05;20.20;47.00
326;DHT22;150;52.352;14.058;2023-09-19T03:53:37;19.40;46.20
326;DHT22;150;52.352;14.058;2023-09-19T03:56:21;19.50;45.40
326;DHT22;150;52.352;14.058;2023-09-19T03:59:20;19.50;45.60
326;DHT22;150;52.352;14.058;2023-09-19T04:02:02;19.70;45.40
326;DHT22;150;52.352;14.058;2023-09-19T04:04:56;19.60;44.40
326;DHT22;150;52.352;14.058;2023-09-19T04:11:04;19.60;44.80
326;DHT22;150;52.352;14.058;2023-09-19T04:13:37;19.60;44.80
326;DHT22;150;52.352;14.058;2023-09-19T04:16:35;19.60;45.10
326;DHT22;150;52.352;14.058;2023-09-19T04:19:16;20.30;45.10
326;DHT22;150;52.352;14.058;2023-09-19T04:21:51;19.60;44.30
326;DHT22;150;52.352;14.058;2023-09-19T04:24:21;19.60;44.30
326;DHT22;150;52.352;14.058;2023-09-19T04:26:49;19.50;44.60
326;DHT22;150;52.352;14.058;2023-09-19T04:29:16;19.40;44.90
326;DHT22;150;52.352;14.058;2023-09-19T04:31:52;19.40;45.80
326;DHT22;150;52.352;14.058;2023-09-19T04:34:18;19.40;45.50
326;DHT22;150;52.352;14.058;2023-09-19T04:36:49;19.40;45.40
326;DHT22;150;52.352;14.058;2023-09-19T04:39:16;19.30;46.00
326;DHT22;150;52.352;14.058;2023-09-19T04:41:43;19.40;46.00
326;DHT22;150;52.352;14.058;2023-09-19T04:44:14;19.50;45.20
326;DHT22;150;52.352;14.058;2023-09-19T04:46:41;19.30;45.60
326;DHT22;150;52.352;14.058;2023-09-19T04:49:10;19.10;45.60
326;DHT22;150;52.352;14.058;2023-09-19T04:51:44;19.40;45.70
326;DHT22;150;52.352;14.058;2023-09-19T04:54:12;19.40;45.60
326;DHT22;150;52.352;14.058;2023-09-19T04:56:40;19.40;45.30
326;DHT22;150;52.352;14.058;2023-09-19T04:59:07;19.40;45.00
326;DHT22;150;52.352;14.058;2023-09-19T05:01:40;19.20;45.30
326;DHT22;150;52.352;14.058;2023-09-19T05:04:07;19.20;46.20
326;DHT22;150;52.352;14.058;2023-09-19T05:06:33;19.30;46.10
326;DHT22;150;52.352;14.058;2023-09-19T05:09:04;19.40;46.00
326;DHT22;150;52.352;14.058;2023-09-19T05:11:36;19.40;45.60
326;DHT22;150;52.352;14.058;2023-09-19T05:14:04;19.30;45.30
326;DHT22;150;52.352;14.058;2023-09-19T05:16:33;19.30;45.40
326;DHT22;150;52.352;14.058;2023-09-19T05:19:02;19.20;45.70
326;DHT22;150;52.352;14.058;2023-09-19T05:21:33;19.80;45.80
326;DHT22;150;52.352;14.058;2023-09-19T05:24:00;19.30;44.60
326;DHT22;150;52.352;14.058;2023-09-19T05:26:27;19.30;44.20
326;DHT22;150;52.352;14.058;2023-09-19T05:28:53;19.30;43.80
326;DHT22;150;52.352;14.058;2023-09-19T05:31:20;19.30;43.70
326;DHT22;150;52.352;14.058;2023-09-19T05:33:54;19.30;43.70
326;DHT22;150;52.352;14.058;2023-09-19T05:36:22;19.10;43.60
326;DHT22;150;52.352;14.058;2023-09-19T05:38:49;19.30;43.00
326;DHT22;150;52.352;14.058;2023-09-19T05:41:18;19.30;42.60
326;DHT22;150;52.352;14.058;2023-09-19T05:43:44;19.40;43.20
326;DHT22;150;52.352;14.058;2023-09-19T05:46:11;19.40;42.20
326;DHT22;150;52.352;14.058;2023-09-19T05:48:41;19.30;41.90
326;DHT22;150;52.352;14.058;2023-09-19T05:51:13;19.30;41.70
326;DHT22;150;52.352;14.058;2023-09-19T05:53:41;19.30;41.30
326;DHT22;150;52.352;14.058;2023-09-19T05:56:09;19.30;41.50
326;DHT22;150;52.352;14.058;2023-09-19T05:58:36;19.40;41.50
326;DHT22;150;52.352;14.058;2023-09-19T06:01:04;19.50;41.20
326;DHT22;150;52.352;14.058;2023-09-19T06:03:32;19.50;40.90
326;DHT22;150;52.352;14.058;2023-09-19T06:06:01;19.50;39.70
326;DHT22;150;52.352;14.058;2023-09-19T06:08:27;19.50;39.90
326;DHT22;150;52.352;14.058;2023-09-19T06:10:56;19.60;39.50
326;DHT22;150;52.352;14.058;2023-09-19T06:13:22;19.50;38.30
326;DHT22;150;52.352;14.058;2023-09-19T06:15:52;19.40;38.40
326;DHT22;150;52.352;14.058;2023-09-19T06:18:19;19.50;38.10
326;DHT22;150;52.352;14.058;2023-09-19T06:20:46;19.50;37.70
326;DHT22;150;52.352;14.058;2023-09-19T06:23:13;19.50;37.90
326;DHT22;150;52.352;14.058;2023-09-19T06:25:40;19.40;37.30
326;DHT22;150;52.352;14.058;2023-09-19T06:28:09;19.50;37.80
326;DHT22;150;52.352;14.058;2023-09-19T06:30:38;19.40;36.90
326;DHT22;150;52.352;14.058;2023-09-19T06:33:06;19.60;36.60
326;DHT22;150;52.352;14.058;2023-09-19T06:35:33;19.60;36.40
326;DHT22;150;52.352;14.058;2023-09-19T06:38:02;19.70;35.90
326;DHT22;150;52.352;14.058;2023-09-19T06:40:29;19.70;34.40
326;DHT22;150;52.352;14.058;2023-09-19T06:42:56;19.70;35.10
326;DHT22;150;52.352;14.058;2023-09-19T06:45:25;19.80;34.00
326;DHT22;150;52.352;14.058;2023-09-19T06:47:52;19.90;34.50
326;DHT22;150;52.352;14.058;2023-09-19T06:50:23;19.90;32.90
326;DHT22;150;52.352;14.058;2023-09-19T06:52:51;20.00;33.90
326;DHT22;150;52.352;14.058;2023-09-19T06:55:19;20.00;32.20
326;DHT22;150;52.352;14.058;2023-09-19T06:57:47;20.00;31.70
326;DHT22;150;52.352;14.058;2023-09-19T07:00:14;20.00;31.30
326;DHT22;150;52.352;14.058;2023-09-19T07:02:45;20.00;31.70
326;DHT22;150;52.352;14.058;2023-09-19T07:05:12;19.90;31.70
326;DHT22;150;52.352;14.058;2023-09-19T07:07:38;19.90;30.80
326;DHT22;150;52.352;14.058;2023-09-19T07:10:06;19.80;30.70
326;DHT22;150;52.352;14.058;2023-09-19T07:12:33;19.80;30.90
326;DHT22;150;52.352;14.058;2023-09-19T07:15:00;19.90;31.00
326;DHT22;150;52.352;14.058;2023-09-19T07:17:27;20.00;30.40
326;DHT22;150;52.352;14.058;2023-09-19T07:19:56;20.00;30.30
326;DHT22;150;52.352;14.058;2023-09-19T07:22:24;20.40;30.40
326;DHT22;150;52.352;14.058;2023-09-19T07:24:52;20.10;30.00
326;DHT22;150;52.352;14.058;2023-09-19T07:27:19;20.10;29.80
326;DHT22;150;52.352;14.058;2023-09-19T07:29:45;20.10;29.70
326;DHT22;150;52.352;14.058;2023-09-19T07:32:12;20.10;29.70
326;DHT22;150;52.352;14.058;2023-09-19T07:34:39;20.10;29.70
326;DHT22;150;52.352;14.058;2023-09-19T07:37:07;20.10;28.70
326;DHT22;150;52.352;14.058;2023-09-19T07:39:35;20.20;28.90
326;DHT22;150;52.352;14.058;2023-09-19T07:42:01;20.10;28.60
326;DHT22;150;52.352;14.058;2023-09-19T07:44:28;20.10;28.70
326;DHT22;150;52.352;14.058;2023-09-19T07:46:55;20.10;28.90
326;DHT22;150;52.352;14.058;2023-09-19T07:49:22;20.20;28.90
326;DHT22;150;52.352;14.058;2023-09-19T07:51:48;20.20;28.80
326;DHT22;150;52.352;14.058;2023-09-19T07:54:16;20.20;28.60
326;DHT22;150;52.352;14.058;2023-09-19T07:56:43;20.30;27.90
326;DHT22;150;52.352;14.058;2023-09-19T07:59:11;20.30;28.20
326;DHT22;150;52.352;14.058;2023-09-19T08:01:39;20.30;27.30
326;DHT22;150;52.352;14.058;2023-09-19T08:04:07;20.30;26.30
326;DHT22;150;52.352;14.058;2023-09-19T08:06:34;20.40;27.30
326;DHT22;150;52.352;14.058;2023-09-19T08:09:00;20.60;27.30
326;DHT22;150;52.352;14.058;2023-09-19T08:11:34;20.70;26.40
326;DHT22;150;52.352;14.058;2023-09-19T08:14:01;20.90;26.50
326;DHT22;150;52.352;14.058;2023-09-19T08:16:27;21.00;25.50
326;DHT22;150;52.352;14.058;2023-09-19T08:18:54;21.10;24.30
326;DHT22;150;52.352;14.058;2023-09-19T08:21:21;21.10;24.00
326;DHT22;150;52.352;14.058;2023-09-19T08:23:49;21.30;23.60
326;DHT22;150;52.352;14.058;2023-09-19T08:26:16;21.40;22.50
326;DHT22;150;52.352;14.058;2023-09-19T08:28:44;21.60;22.90
326;DHT22;150;52.352;14.058;2023-09-19T08:31:13;21.60;22.70
326;DHT22;150;52.352;14.058;2023-09-19T08:33:43;21.50;21.50
326;DHT22;150;52.352;14.058;2023-09-19T08:36:15;21.50;22.30
326;DHT22;150;52.352;14.058;2023-09-19T08:38:42;21.70;22.80
326;DHT22;150;52.352;14.058;2023-09-19T08:41:08;21.60;22.70
326;DHT22;150;52.352;14.058;2023-09-19T08:43:35;21.50;22.60
326;DHT22;150;52.352;14.058;2023-09-19T08:46:10;21.40;22.30
326;DHT22;150;52.352;14.058;2023-09-19T08:48:44;21.50;22.60
326;DHT22;150;52.352;14.058;2023-09-19T08:51:18;21.40;22.20
326;DHT22;150;52.352;14.058;2023-09-19T08:53:51;21.40;22.60
326;DHT22;150;52.352;14.058;2023-09-19T08:56:19;21.40;22.50
326;DHT22;150;52.352;14.058;2023-09-19T08:58:57;21.50;22.70
326;DHT22;150;52.352;14.058;2023-09-19T09:01:27;21.60;23.00
326;DHT22;150;52.352;14.058;2023-09-19T09:03:56;21.70;22.70
326;DHT22;150;52.352;14.058;2023-09-19T09:06:23;21.70;22.80
326;DHT22;150;52.352;14.058;2023-09-19T09:08:51;21.80;22.40
326;DHT22;150;52.352;14.058;2023-09-19T09:11:18;21.80;21.90
326;DHT22;150;52.352;14.058;2023-09-19T09:13:45;21.80;22.10
326;DHT22;150;52.352;14.058;2023-09-19T09:16:12;21.80;21.60
326;DHT22;150;52.352;14.058;2023-09-19T09:18:40;21.80;20.50
326;DHT22;150;52.352;14.058;2023-09-19T09:21:09;21.80;19.90
326;DHT22;150;52.352;14.058;2023-09-19T09:23:36;21.90;19.30
326;DHT22;150;52.352;14.058;2023-09-19T09:26:02;22.00;19.20
326;DHT22;150;52.352;14.058;2023-09-19T09:28:32;22.00;18.50
326;DHT22;150;52.352;14.058;2023-09-19T09:31:01;22.20;18.40
326;DHT22;150;52.352;14.058;2023-09-19T09:33:33;22.50;18.40
326;DHT22;150;52.352;14.058;2023-09-19T09:36:02;22.50;17.30
326;DHT22;150;52.352;14.058;2023-09-19T09:38:43;22.50;17.20
326;DHT22;150;52.352;14.058;2023-09-19T09:41:10;22.60;17.50
326;DHT22;150;52.352;14.058;2023-09-19T09:43:41;22.70;16.70
326;DHT22;150;52.352;14.058;2023-09-19T09:46:13;22.90;16.70
326;DHT22;150;52.352;14.058;2023-09-19T09:49:00;22.90;14.70
326;DHT22;150;52.352;14.058;2023-09-19T09:51:46;23.20;13.80
326;DHT22;150;52.352;14.058;2023-09-19T09:54:24;22.80;13.90
326;DHT22;150;52.352;14.058;2023-09-19T09:56:54;22.90;13.80
326;DHT22;150;52.352;14.058;2023-09-19T09:59:50;23.10;12.80
326;DHT22;150;52.352;14.058;2023-09-19T10:02:20;22.90;11.40
326;DHT22;150;52.352;14.058;2023-09-19T10:04:51;22.90;11.10
326;DHT22;150;52.352;14.058;2023-09-19T10:07:39;23.00;12.20
326;DHT22;150;52.352;14.058;2023-09-19T10:10:08;23.00;12.10
326;DHT22;150;52.352;14.058;2023-09-19T10:12:46;23.10;12.70
326;DHT22;150;52.352;14.058;2023-09-19T10:15:14;23.20;11.90
326;DHT22;150;52.352;14.058;2023-09-19T10:17:43;23.10;9.90
326;DHT22;150;52.352;14.058;2023-09-19T10:20:12;23.00;9.60
326;DHT22;150;52.352;14.058;2023-09-19T10:23:12;23.10;10.60
326;DHT22;150;52.352;14.058;2023-09-19T10:25:48;23.00;10.50
326;DHT22;150;52.352;14.058;2023-09-19T10:28:16;23.10;9.80
326;DHT22;150;52.352;14.058;2023-09-19T10:30:49;23.60;10.50
326;DHT22;150;52.352;14.058;2023-09-19T10:33:19;23.30;9.90
326;DHT22;150;52.352;14.058;2023-09-19T10:36:00;23.50;10.20
326;DHT22;150;52.352;14.058;2023-09-19T10:38:32;23.40;9.00
326;DHT22;150;52.352;14.058;2023-09-19T10:41:04;23.40;7.60
326;DHT22;150;52.352;14.058;2023-09-19T10:43:57;23.40;8.40
326;DHT22;150;52.352;14.058;2023-09-19T10:46:25;23.30;8.20
326;DHT22;150;52.352;14.058;2023-09-19T10:48:52;23.70;8.60
326;DHT22;150;52.352;14.058;2023-09-19T10:51:22;23.20;8.30
326;DHT22;150;52.352;14.058;2023-09-19T10:54:06;23.30;8.90
326;DHT22;150;52.352;14.058;2023-09-19T10:56:38;23.40;7.80
326;DHT22;150;52.352;14.058;2023-09-19T10:59:20;23.30;8.60
326;DHT22;150;52.352;14.058;2023-09-19T11:01:52;23.60;8.90
326;DHT22;150;52.352;14.058;2023-09-19T11:04:23;23.30;8.90
326;DHT22;150;52.352;14.058;2023-09-19T11:07:03;23.30;8.50
326;DHT22;150;52.352;14.058;2023-09-19T11:09:51;23.40;9.10
326;DHT22;150;52.352;14.058;2023-09-19T11:12:49;23.60;8.90
326;DHT22;150;52.352;14.058;2023-09-19T11:18:51;23.80;8.90
326;DHT22;150;52.352;14.058;2023-09-19T11:21:41;23.60;8.70
326;DHT22;150;52.352;14.058;2023-09-19T11:24:30;23.50;8.10
326;DHT22;150;52.352;14.058;2023-09-19T11:27:15;23.50;8.80
326;DHT22;150;52.352;14.058;2023-09-19T11:29:44;23.40;8.70
326;DHT22;150;52.352;14.058;2023-09-19T11:32:14;23.50;9.00
326;DHT22;150;52.352;14.058;2023-09-19T11:34:47;23.40;8.90
326;DHT22;150;52.352;14.058;2023-09-19T11:40:45;23.30;9.60
326;DHT22;150;52.352;14.058;2023-09-19T11:43:31;23.30;9.80
326;DHT22;150;52.352;14.058;2023-09-19T11:46:09;23.50;9.60
326;DHT22;150;52.352;14.058;2023-09-19T11:48:39;23.50;9.40
326;DHT22;150;52.352;14.058;2023-09-19T11:51:17;23.60;9.10
326;DHT22;150;52.352;14.058;2023-09-19T11:53:50;23.70;8.80
326;DHT22;150;52.352;14.058;2023-09-19T11:56:18;23.70;8.70
326;DHT22;150;52.352;14.058;2023-09-19T11:58:49;23.50;9.00
326;DHT22;150;52.352;14.058;2023-09-19T12:01:29;23.20;8.30
326;DHT22;150;52.352;14.058;2023-09-19T12:04:04;23.40;7.70
326;DHT22;150;52.352;14.058;2023-09-19T12:06:42;23.30;8.90
326;DHT22;150;52.352;14.058;2023-09-19T12:09:12;23.50;9.60
326;DHT22;150;52.352;14.058;2023-09-19T12:11:42;23.70;9.30
326;DHT22;150;52.352;14.058;2023-09-19T12:14:26;23.70;8.20
326;DHT22;150;52.352;14.058;2023-09-19T12:17:17;23.70;8.90
326;DHT22;150;52.352;14.058;2023-09-19T12:20:08;23.60;8.70
326;DHT22;150;52.352;14.058;2023-09-19T12:22:46;23.60;8.20
326;DHT22;150;52.352;14.058;2023-09-19T12:25:14;23.60;8.50
326;DHT22;150;52.352;14.058;2023-09-19T12:27:50;23.50;9.30
326;DHT22;150;52.352;14.058;2023-09-19T12:30:21;23.40;9.10
326;DHT22;150;52.352;14.058;2023-09-19T12:32:58;23.30;9.70
326;DHT22;150;52.352;14.058;2023-09-19T12:35:33;23.20;9.00
326;DHT22;150;52.352;14.058;2023-09-19T12:38:26;23.40;9.10
326;DHT22;150;52.352;14.058;2023-09-19T12:41:04;23.30;9.30
326;DHT22;150;52.352;14.058;2023-09-19T12:43:35;23.20;10.20
326;DHT22;150;52.352;14.058;2023-09-19T12:46:22;23.20;9.50
326;DHT22;150;52.352;14.058;2023-09-19T12:49:15;23.30;9.20
326;DHT22;150;52.352;14.058;2023-09-19T12:51:47;23.30;9.00
326;DHT22;150;52.352;14.058;2023-09-19T12:54:23;23.50;8.80
326;DHT22;150;52.352;14.058;2023-09-19T12:56:59;23.30;9.10
326;DHT22;150;52.352;14.058;2023-09-19T12:59:40;23.20;9.10
326;DHT22;150;52.352;14.058;2023-09-19T13:02:11;23.40;8.90
326;DHT22;150;52.352;14.058;2023-09-19T13:04:52;23.30;9.30
326;DHT22;150;52.352;14.058;2023-09-19T13:07:40;23.30;9.30
326;DHT22;150;52.352;14.058;2023-09-19T13:10:23;23.40;9.00
326;DHT22;150;52.352;14.058;2023-09-19T13:12:52;23.50;8.80
326;DHT22;150;52.352;14.058;2023-09-19T13:15:52;23.30;8.40
326;DHT22;150;52.352;14.058;2023-09-19T13:18:20;23.10;8.60
326;DHT22;150;52.352;14.058;2023-09-19T13:23:55;23.50;8.90
326;DHT22;150;52.352;14.058;2023-09-19T13:26:30;23.60;8.40
326;DHT22;150;52.352;14.058;2023-09-19T13:29:09;23.60;9.10
326;DHT22;150;52.352;14.058;2023-09-19T13:31:50;23.70;9.20
326;DHT22;150;52.352;14.058;2023-09-19T13:34:21;23.70;9.40
326;DHT22;150;52.352;14.058;2023-09-19T13:36:49;23.70;9.30
326;DHT22;150;52.352;14.058;2023-09-19T13:39:42;23.80;9.30
326;DHT22;150;52.352;14.058;2023-09-19T13:42:13;23.70;9.20
326;DHT22;150;52.352;14.058;2023-09-19T13:45:00;23.70;9.80
326;DHT22;150;52.352;14.058;2023-09-19T13:47:37;23.80;9.50
326;DHT22;150;52.352;14.058;2023-09-19T13:50:20;23.80;8.80
326;DHT22;150;52.352;14.058;2023-09-19T13:52:54;23.80;8.70
326;DHT22;150;52.352;14.058;2023-09-19T13:55:36;23.60;9.10
326;DHT22;150;52.352;14.058;2023-09-19T13:58:12;23.40;9.10
326;DHT22;150;52.352;14.058;2023-09-19T14:00:44;23.70;9.90
326;DHT22;150;52.352;14.058;2023-09-19T14:03:35;23.40;9.00
326;DHT22;150;52.352;14.058;2023-09-19T14:06:13;23.70;8.90
326;DHT22;150;52.352;14.058;2023-09-19T14:08:40;23.40;9.20
326;DHT22;150;52.352;14.058;2023-09-19T14:11:14;23.20;9.50
326;DHT22;150;52.352;14.058;2023-09-19T14:13:55;23.30;8.70
326;DHT22;150;52.352;14.058;2023-09-19T14:16:27;23.10;9.50
326;DHT22;150;52.352;14.058;2023-09-19T14:19:03;23.20;9.10
326;DHT22;150;52.352;14.058;2023-09-19T14:21:50;23.20;9.20
326;DHT22;150;52.352;14.058;2023-09-19T14:24:27;23.30;9.40
326;DHT22;150;52.352;14.058;2023-09-19T14:26:54;23.70;9.40
326;DHT22;150;52.352;14.058;2023-09-19T14:29:25;23.50;9.20
326;DHT22;150;52.352;14.058;2023-09-19T14:32:04;23.40;7.50
326;DHT22;150;52.352;14.058;2023-09-19T14:35:12;23.40;8.30
326;DHT22;150;52.352;14.058;2023-09-19T14:38:08;23.60;7.70
326;DHT22;150;52.352;14.058;2023-09-19T14:40:37;23.60;8.10
326;DHT22;150;52.352;14.058;2023-09-19T14:43:07;23.70;8.00
326;DHT22;150;52.352;14.058;2023-09-19T14:45:41;23.60;7.50
326;DHT22;150;52.352;14.058;2023-09-19T14:48:10;23.40;7.60
326;DHT22;150;52.352;14.058;2023-09-19T14:50:44;23.50;8.00
326;DHT22;150;52.352;14.058;2023-09-19T14:53:12;23.50;7.90
326;DHT22;150;52.352;14.058;2023-09-19T14:55:45;23.50;8.00
326;DHT22;150;52.352;14.058;2023-09-19T14:58:33;23.50;8.00
326;DHT22;150;52.352;14.058;2023-09-19T15:01:10;23.60;8.20
326;DHT22;150;52.352;14.058;2023-09-19T15:06:41;23.70;8.30
326;DHT22;150;52.352;14.058;2023-09-19T15:09:12;23.80;8.40
326;DHT22;150;52.352;14.058;2023-09-19T15:11:44;23.80;7.60
326;DHT22;150;52.352;14.058;2023-09-19T15:14:24;23.70;7.70
326;DHT22;150;52.352;14.058;2023-09-19T15:16:54;23.60;7.80
326;DHT22;150;52.352;14.058;2023-09-19T15:19:21;23.40;7.70
326;DHT22;150;52.352;14.058;2023-09-19T15:21:49;23.60;8.30
326;DHT22;150;52.352;14.058;2023-09-19T15:24:34;23.50;7.50
326;DHT22;150;52.352;14.058;2023-09-19T15:27:11;23.40;8.10
326;DHT22;150;52.352;14.058;2023-09-19T15:29:45;23.30;8.10
326;DHT22;150;52.352;14.058;2023-09-19T15:32:12;23.10;8.40
326;DHT22;150;52.352;14.058;2023-09-19T15:38:10;22.90;8.50
326;DHT22;150;52.352;14.058;2023-09-19T15:43:48;22.80;8.70
326;DHT22;150;52.352;14.058;2023-09-19T15:46:17;22.80;8.90
326;DHT22;150;52.352;14.058;2023-09-19T15:48:50;22.80;8.90
326;DHT22;150;52.352;14.058;2023-09-19T15:51:20;23.00;9.40
326;DHT22;150;52.352;14.058;2023-09-19T15:54:10;23.50;9.80
326;DHT22;150;52.352;14.058;2023-09-19T15:56:54;22.60;8.90
326;DHT22;150;52.352;14.058;2023-09-19T15:59:25;22.50;9.00
326;DHT22;150;52.352;14.058;2023-09-19T16:01:52;22.40;9.20
326;DHT22;150;52.352;14.058;2023-09-19T16:04:26;22.40;9.20
326;DHT22;150;52.352;14.058;2023-09-19T16:06:58;22.80;10.30
326;DHT22;150;52.352;14.058;2023-09-19T16:09:38;22.30;9.20
326;DHT22;150;52.352;14.058;2023-09-19T16:12:05;22.60;9.60
326;DHT22;150;52.352;14.058;2023-09-19T16:14:38;22.30;9.80
326;DHT22;150;52.352;14.058;2023-09-19T16:17:15;22.40;10.00
326;DHT22;150;52.352;14.058;2023-09-19T16:19:42;22.30;9.60
326;DHT22;150;52.352;14.058;2023-09-19T16:22:09;22.30;9.80
326;DHT22;150;52.352;14.058;2023-09-19T16:24:50;22.30;9.80
326;DHT22;150;52.352;14.058;2023-09-19T16:27:25;22.40;9.80
326;DHT22;150;52.352;14.058;2023-09-19T16:29:53;22.40;9.70
326;DHT22;150;52.352;14.058;2023-09-19T16:32:19;22.70;10.00
326;DHT22;150;52.352;14.058;2023-09-19T16:34:50;22.40;9.50
326;DHT22;150;52.352;14.058;2023-09-19T16:37:29;22.30;10.10
326;DHT22;150;52.352;14.058;2023-09-19T16:39:56;22.30;9.80
326;DHT22;150;52.352;14.058;2023-09-19T16:46:12;22.20;10.10
326;DHT22;150;52.352;14.058;2023-09-19T16:48:43;22.20;10.10
326;DHT22;150;52.352;14.058;2023-09-19T16:51:12;22.10;10.20
326;DHT22;150;52.352;14.058;2023-09-19T16:53:39;22.10;10.20
326;DHT22;150;52.352;14.058;2023-09-19T16:56:11;21.90;10.90
326;DHT22;150;52.352;14.058;2023-09-19T16:58:45;22.10;10.40
326;DHT22;150;52.352;14.058;2023-09-19T17:01:26;22.10;10.50
326;DHT22;150;52.352;14.058;2023-09-19T17:04:23;22.00;10.40
326;DHT22;150;52.352;14.058;2023-09-19T17:06:56;21.90;10.70
326;DHT22;150;52.352;14.058;2023-09-19T17:09:23;22.20;11.00
326;DHT22;150;52.352;14.058;2023-09-19T17:11:52;21.90;11.00
326;DHT22;150;52.352;14.058;2023-09-19T17:14:42;21.90;10.80
326;DHT22;150;52.352;14.058;2023-09-19T17:17:14;21.80;10.80
326;DHT22;150;52.352;14.058;2023-09-19T17:19:48;21.70;10.90
326;DHT22;150;52.352;14.058;2023-09-19T17:22:22;21.70;11.00
326;DHT22;150;52.352;14.058;2023-09-19T17:24:51;21.70;11.20
326;DHT22;150;52.352;14.058;2023-09-19T17:27:20;21.80;11.30
326;DHT22;150;52.352;14.058;2023-09-19T17:29:46;21.70;11.30
326;DHT22;150;52.352;14.058;2023-09-19T17:32:18;21.60;11.30
326;DHT22;150;52.352;14.058;2023-09-19T17:34:56;21.80;11.30
326;DHT22;150;52.352;14.058;2023-09-19T17:37:25;21.70;11.50
326;DHT22;150;52.352;14.058;2023-09-19T17:39:58;21.70;11.40
326;DHT22;150;52.352;14.058;2023-09-19T17:42:32;21.70;11.50
326;DHT22;150;52.352;14.058;2023-09-19T17:44:59;21.70;11.50
326;DHT22;150;52.352;14.058;2023-09-19T17:47:28;21.50;11.70
326;DHT22;150;52.352;14.058;2023-09-19T17:50:08;21.70;11.90
326;DHT22;150;52.352;14.058;2023-09-19T17:52:39;21.50;12.00
326;DHT22;150;52.352;14.058;2023-09-19T17:55:15;21.50;11.60
326;DHT22;150;52.352;14.058;2023-09-19T17:58:00;21.40;11.80
326;DHT22;150;52.352;14.058;2023-09-19T18:00:45;21.40;12.00
326;DHT22;150;52.352;14.058;2023-09-19T18:03:40;21.30;12.10